createdAt,value
2023-04-10T00:00:14.376Z,100112.63
2023-04-10T00:01:15.932Z,100113.72
2023-04-10T00:02:17.700Z,100109.41
2023-04-10T00:03:19.515Z,100110.34
2023-04-10T00:04:21.262Z,100107.72
2023-04-10T00:05:22.944Z,100109.59
2023-04-10T00:06:24.449Z,100109.66
2023-04-10T00:07:26.095Z,100102.00
2023-04-10T00:08:27.670Z,100109.66
2023-04-10T00:09:29.218Z,100099.91
2023-04-10T00:10:30.796Z,100104.00
2023-04-10T00:11:32.341Z,100097.88
2023-04-10T00:12:36.146Z,100108.34
2023-04-10T00:13:37.641Z,100104.53
2023-04-10T00:14:39.235Z,100097.09
2023-04-10T00:15:40.753Z,100101.16
2023-04-10T00:16:42.334Z,100096.66
2023-04-10T00:17:43.958Z,100093.97
2023-04-10T00:18:45.538Z,100089.84
2023-04-10T00:19:47.120Z,100097.59
2023-04-10T00:20:48.651Z,100094.84
2023-04-10T00:21:50.162Z,100097.09
2023-04-10T00:22:51.725Z,100092.44
2023-04-10T00:23:53.465Z,100095.63
2023-04-10T00:24:55.092Z,100095.38
2023-04-10T00:25:56.602Z,100095.28
2023-04-10T00:26:58.150Z,100090.97
2023-04-10T00:27:59.675Z,100093.69
2023-04-10T00:29:02.113Z,100091.16
2023-04-10T00:30:03.808Z,100100.38
2023-04-10T00:31:05.630Z,100104.75
2023-04-10T00:32:07.296Z,100100.38
2023-04-10T00:33:08.915Z,100098.50
2023-04-10T00:34:10.489Z,100100.28
2023-04-10T00:35:12.119Z,100101.19
2023-04-10T00:36:13.811Z,100098.94
2023-04-10T00:37:15.495Z,100101.38
2023-04-10T00:38:17.049Z,100101.31
2023-04-10T00:39:19.208Z,100102.25
2023-04-10T00:40:20.730Z,100100.56
2023-04-10T00:41:22.365Z,100098.09
2023-04-10T00:42:23.983Z,100098.19
2023-04-10T00:43:25.530Z,100096.41
2023-04-10T00:44:27.037Z,100103.44
2023-04-10T00:45:28.611Z,100104.19
2023-04-10T00:46:31.298Z,100098.19
2023-04-10T00:47:35.009Z,100100.56
2023-04-10T00:48:37.163Z,100097.16
2023-04-10T00:49:38.727Z,100096.41
2023-04-10T00:50:40.353Z,100098.03
2023-04-10T00:51:41.943Z,100098.78
2023-04-10T00:52:43.760Z,100097.94
2023-04-10T00:53:46.043Z,100096.91
2023-04-10T00:54:47.751Z,100102.31
2023-04-10T00:55:50.365Z,100102.25
2023-04-10T00:56:52.326Z,100105.88
2023-04-10T00:57:56.311Z,100099.28
2023-04-10T00:58:58.016Z,100101.16
2023-04-10T01:00:00.426Z,100099.91
2023-04-10T01:01:01.957Z,100103.50
2023-04-10T01:02:04.306Z,100108.66
2023-04-10T01:03:06.131Z,100109.84
2023-04-10T01:04:09.588Z,100110.53
2023-04-10T01:05:13.109Z,100109.50
2023-04-10T01:06:30.583Z,100102.75
2023-04-10T01:07:44.309Z,100096.44
2023-04-10T01:08:49.921Z,100101.19
2023-04-10T01:10:08.471Z,100103.34
2023-04-10T01:11:21.896Z,100102.09
2023-04-10T01:12:47.841Z,100098.97
2023-04-10T01:14:07.148Z,100095.00
2023-04-10T01:15:15.531Z,100095.19
2023-04-10T01:16:27.019Z,100091.66
2023-04-10T01:17:35.306Z,100091.88
2023-04-10T01:18:53.334Z,100094.44
2023-04-10T01:20:04.364Z,100099.59
2023-04-10T01:21:10.936Z,100099.41
2023-04-10T01:22:14.019Z,100093.25
2023-04-10T01:23:52.940Z,100100.97
2023-04-10T01:25:32.179Z,100095.66
2023-04-10T01:26:56.153Z,100093.13
2023-04-10T01:28:36.600Z,100092.81
2023-04-10T01:29:44.724Z,100088.16
2023-04-10T01:30:48.829Z,100081.94
2023-04-10T01:32:14.826Z,100083.56
2023-04-10T01:33:22.467Z,100089.44
2023-04-10T01:34:30.034Z,100096.19
2023-04-10T01:35:33.688Z,100092.53
2023-04-10T01:36:40.745Z,100093.81
2023-04-10T01:37:43.127Z,100095.44
2023-04-10T01:38:46.442Z,100089.78
2023-04-10T01:39:52.398Z,100096.34
2023-04-10T01:40:55.185Z,100093.47
2023-04-10T01:42:06.795Z,100099.41
2023-04-10T01:43:12.444Z,100098.38
2023-04-10T01:44:25.507Z,100097.28
2023-04-10T01:45:28.486Z,100101.56
2023-04-10T01:46:31.743Z,100091.97
2023-04-10T01:47:33.598Z,100095.03
2023-04-10T01:48:35.742Z,100092.72
2023-04-10T01:49:40.289Z,100100.56
2023-04-10T01:50:42.229Z,100095.50
2023-04-10T01:51:44.911Z,100088.84
2023-04-10T01:52:47.633Z,100094.06
2023-04-10T01:53:55.906Z,100098.31
2023-04-10T01:55:02.661Z,100098.53
2023-04-10T01:56:15.993Z,100095.69
2023-04-10T01:57:21.185Z,100096.94
2023-04-10T01:58:28.566Z,100100.91
2023-04-10T01:59:32.885Z,100096.09
2023-04-10T02:00:41.926Z,100094.75
2023-04-10T02:01:44.565Z,100102.31
2023-04-10T02:02:47.139Z,100094.22
2023-04-10T02:03:48.898Z,100094.06
2023-04-10T02:04:50.580Z,100095.59
2023-04-10T02:06:05.441Z,100098.78
2023-04-10T02:07:12.017Z,100098.19
2023-04-10T02:08:26.412Z,100095.59
2023-04-10T02:09:55.651Z,100102.50
2023-04-10T02:11:36.703Z,100105.19
2023-04-10T02:13:00.379Z,100101.81
2023-04-10T02:14:05.638Z,100108.81
2023-04-10T02:15:09.310Z,100109.09
2023-04-10T02:16:15.919Z,100108.06
2023-04-10T02:17:23.184Z,100106.31
2023-04-10T02:18:27.036Z,100109.84
2023-04-10T02:19:30.910Z,100114.31
2023-04-10T02:20:33.055Z,100115.16
2023-04-10T02:21:35.379Z,100108.16
2023-04-10T02:22:37.117Z,100113.22
2023-04-10T02:23:39.080Z,100110.53
2023-04-10T02:24:40.662Z,100113.78
2023-04-10T02:25:42.263Z,100111.03
2023-04-10T02:26:53.647Z,100107.56
2023-04-10T02:27:55.196Z,100109.97
2023-04-10T02:28:56.709Z,100104.75
2023-04-10T02:29:58.369Z,100103.81
2023-04-10T02:31:00.981Z,100108.03
2023-04-10T02:32:03.484Z,100107.38
2023-04-10T02:33:05.612Z,100109.00
2023-04-10T02:34:07.369Z,100108.06
2023-04-10T02:35:09.076Z,100103.44
2023-04-10T02:36:12.244Z,100102.19
2023-04-10T02:37:13.830Z,100106.88
2023-04-10T02:38:17.267Z,100100.91
2023-04-10T02:39:19.024Z,100107.22
2023-04-10T02:40:24.514Z,100108.38
2023-04-10T02:41:44.705Z,100102.41
2023-04-10T02:42:47.810Z,100098.34
2023-04-10T02:43:49.344Z,100103.41
2023-04-10T02:44:53.187Z,100101.72
2023-04-10T02:45:54.952Z,100096.50
2023-04-10T02:47:02.008Z,100094.88
2023-04-10T02:48:06.037Z,100094.19
2023-04-10T02:49:07.611Z,100093.56
2023-04-10T02:50:09.828Z,100089.78
2023-04-10T02:51:14.071Z,100108.31
2023-04-10T02:52:15.928Z,100103.66
2023-04-10T02:53:17.483Z,100097.94
2023-04-10T02:54:19.011Z,100105.28
2023-04-10T02:55:20.579Z,100091.22
2023-04-10T02:56:22.119Z,100092.66
2023-04-10T02:57:23.619Z,100100.06
2023-04-10T02:58:25.216Z,100095.50
2023-04-10T02:59:29.619Z,100099.81
2023-04-10T03:00:31.945Z,100096.16
2023-04-10T03:01:39.775Z,100096.84
2023-04-10T03:02:41.735Z,100105.28
2023-04-10T03:03:50.270Z,100097.16
2023-04-10T03:05:01.853Z,100100.44
2023-04-10T03:06:04.398Z,100098.59
2023-04-10T03:07:09.022Z,100099.38
2023-04-10T03:08:14.120Z,100095.63
2023-04-10T03:09:15.660Z,100105.09
2023-04-10T03:10:17.199Z,100108.47
2023-04-10T03:11:18.864Z,100096.22
2023-04-10T03:12:20.400Z,100103.78
2023-04-10T03:13:21.923Z,100106.53
2023-04-10T03:14:23.466Z,100105.66
2023-04-10T03:15:25.005Z,100106.34
2023-04-10T03:16:26.647Z,100102.78
2023-04-10T03:17:28.392Z,100101.94
2023-04-10T03:18:30.054Z,100100.16
2023-04-10T03:19:31.601Z,100088.78
2023-04-10T03:20:33.601Z,100102.53
2023-04-10T03:21:35.208Z,100099.06
2023-04-10T03:22:38.650Z,100097.38
2023-04-10T03:23:41.421Z,100097.19
2023-04-10T03:24:42.928Z,100100.84
2023-04-10T03:25:44.492Z,100100.16
2023-04-10T03:26:46.051Z,100098.38
2023-04-10T03:27:47.576Z,100097.44
2023-04-10T03:28:49.394Z,100099.22
2023-04-10T03:29:50.916Z,100102.69
2023-04-10T03:30:52.748Z,100101.78
2023-04-10T03:31:54.365Z,100101.00
2023-04-10T03:32:55.952Z,100102.78
2023-04-10T03:33:57.751Z,100101.94
2023-04-10T03:34:59.785Z,100102.97
2023-04-10T03:36:01.368Z,100102.03
2023-04-10T03:37:02.960Z,100094.19
2023-04-10T03:38:04.533Z,100093.25
2023-04-10T03:39:06.093Z,100094.94
2023-04-10T03:40:10.580Z,100097.44
2023-04-10T03:41:12.144Z,100094.00
2023-04-10T03:42:13.785Z,100091.31
2023-04-10T03:43:15.404Z,100093.16
2023-04-10T03:44:17.565Z,100095.38
2023-04-10T03:45:19.101Z,100093.22
2023-04-10T03:46:20.628Z,100094.41
2023-04-10T03:47:22.267Z,100093.78
2023-04-10T03:48:25.941Z,100091.09
2023-04-10T03:49:27.481Z,100094.41
2023-04-10T03:50:37.001Z,100095.97
2023-04-10T03:51:39.494Z,100090.00
2023-04-10T03:52:41.610Z,100095.09
2023-04-10T03:53:48.118Z,100092.63
2023-04-10T03:54:50.995Z,100089.63
2023-04-10T03:55:59.589Z,100093.22
2023-04-10T03:57:01.156Z,100093.06
2023-04-10T03:58:03.257Z,100090.13
2023-04-10T03:59:05.552Z,100096.03
2023-04-10T04:00:14.434Z,100092.47
2023-04-10T04:01:22.254Z,100088.25
2023-04-10T04:02:33.508Z,100092.38
2023-04-10T04:03:36.041Z,100095.84
2023-04-10T04:05:00.862Z,100099.47
2023-04-10T04:06:21.439Z,100095.59
2023-04-10T04:07:41.392Z,100093.34
2023-04-10T04:09:18.067Z,100101.31
2023-04-10T04:10:32.252Z,100101.56
2023-04-10T04:11:52.168Z,100098.19
2023-04-10T04:13:12.066Z,100099.31
2023-04-10T04:14:39.795Z,100100.13
2023-04-10T04:15:59.958Z,100102.56
2023-04-10T04:17:27.846Z,100101.97
2023-04-10T04:18:38.497Z,100104.44
2023-04-10T04:20:03.525Z,100096.59
2023-04-10T04:21:30.956Z,100105.97
2023-04-10T04:22:58.745Z,100106.38
2023-04-10T04:24:15.077Z,100107.91
2023-04-10T04:25:45.531Z,100108.13
2023-04-10T04:27:04.280Z,100105.13
2023-04-10T04:28:23.303Z,100113.16
2023-04-10T04:29:43.164Z,100117.84
2023-04-10T04:31:19.941Z,100127.81
2023-04-10T04:32:53.852Z,100122.97
2023-04-10T04:34:13.961Z,100123.59
2023-04-10T04:35:38.785Z,100127.88
2023-04-10T04:37:15.680Z,100132.94
2023-04-10T04:38:36.841Z,100125.03
2023-04-10T04:40:07.828Z,100127.53
2023-04-10T04:41:22.757Z,100128.47
2023-04-10T04:42:39.504Z,100130.31
2023-04-10T04:44:06.989Z,100131.44
2023-04-10T04:45:23.443Z,100135.47
2023-04-10T04:46:44.392Z,100128.84
2023-04-10T04:48:05.017Z,100133.41
2023-04-10T04:49:33.068Z,100134.97
2023-04-10T04:50:53.258Z,100135.19
2023-04-10T04:52:13.118Z,100128.28
2023-04-10T04:53:18.067Z,100126.69
2023-04-10T04:54:42.808Z,100124.22
2023-04-10T04:56:04.854Z,100126.81
2023-04-10T04:57:26.535Z,100124.22
2023-04-10T04:58:51.273Z,100122.53
2023-04-10T05:00:28.000Z,100123.38
2023-04-10T05:01:42.080Z,100126.22
2023-04-10T05:03:08.931Z,100122.41
2023-04-10T05:04:10.750Z,100135.88
2023-04-10T05:05:31.097Z,100121.59
2023-04-10T05:06:47.824Z,100127.19
2023-04-10T05:07:57.640Z,100133.53
2023-04-10T05:09:17.775Z,100136.38
2023-04-10T05:10:30.789Z,100139.25
2023-04-10T05:11:48.761Z,100141.38
2023-04-10T05:13:13.202Z,100143.66
2023-04-10T05:14:28.646Z,100138.09
2023-04-10T05:15:40.386Z,100142.16
2023-04-10T05:16:41.939Z,100141.97
2023-04-10T05:17:46.270Z,100142.22
2023-04-10T05:19:10.842Z,100130.00
2023-04-10T05:20:35.628Z,100135.19
2023-04-10T05:21:44.947Z,100136.63
2023-04-10T05:23:18.748Z,100128.28
2023-04-10T05:24:20.277Z,100128.28
2023-04-10T05:25:44.431Z,100124.91
2023-04-10T05:27:06.259Z,100126.78
2023-04-10T05:28:33.874Z,100128.47
2023-04-10T05:29:55.646Z,100137.06
2023-04-10T05:31:17.139Z,100141.09
2023-04-10T05:32:44.801Z,100138.91
2023-04-10T05:34:04.893Z,100134.09
2023-04-10T05:35:18.358Z,100132.28
2023-04-10T05:36:33.134Z,100129.22
2023-04-10T05:37:50.339Z,100137.91
2023-04-10T05:39:04.663Z,100139.50
2023-04-10T05:40:12.552Z,100135.19
2023-04-10T05:41:46.326Z,100151.22
2023-04-10T05:42:50.769Z,100158.66
2023-04-10T05:43:59.888Z,100147.78
2023-04-10T05:45:39.936Z,100151.44
2023-04-10T05:47:10.924Z,100147.28
2023-04-10T05:48:15.259Z,100152.09
2023-04-10T05:49:52.227Z,100158.59
2023-04-10T05:51:12.404Z,100164.41
2023-04-10T05:52:32.014Z,100163.28
2023-04-10T05:53:41.674Z,100162.22
2023-04-10T05:55:03.587Z,100155.78
2023-04-10T05:56:08.165Z,100161.66
2023-04-10T05:57:30.039Z,100169.09
2023-04-10T05:58:52.114Z,100162.94
2023-04-10T06:00:19.851Z,100164.19
2023-04-10T06:01:59.566Z,100165.69
2023-04-10T06:03:01.270Z,100166.34
2023-04-10T06:04:03.651Z,100165.34
2023-04-10T06:05:05.610Z,100163.72
2023-04-10T06:06:08.655Z,100168.28
2023-04-10T06:07:10.167Z,100170.59
2023-04-10T06:08:11.886Z,100170.13
2023-04-10T06:09:13.510Z,100174.75
2023-04-10T06:10:15.041Z,100168.09
2023-04-10T06:11:16.852Z,100168.50
2023-04-10T06:12:22.503Z,100173.31
2023-04-10T06:13:24.132Z,100173.16
2023-04-10T06:14:29.130Z,100165.13
2023-04-10T06:15:32.145Z,100165.00
2023-04-10T06:16:33.714Z,100169.22
2023-04-10T06:17:35.376Z,100166.78
2023-04-10T06:18:38.116Z,100173.63
2023-04-10T06:19:39.651Z,100170.09
2023-04-10T06:20:41.169Z,100169.03
2023-04-10T06:21:42.717Z,100165.69
2023-04-10T06:22:44.257Z,100164.19
2023-04-10T06:23:45.777Z,100173.03
2023-04-10T06:24:47.281Z,100168.00
2023-04-10T06:25:48.845Z,100168.44
2023-04-10T06:26:50.361Z,100164.69
2023-04-10T06:27:52.159Z,100164.13
2023-04-10T06:28:54.215Z,100168.44
2023-04-10T06:29:56.405Z,100167.81
2023-04-10T06:30:58.386Z,100163.19
2023-04-10T06:32:05.754Z,100165.81
2023-04-10T06:33:11.187Z,100167.69
2023-04-10T06:34:16.271Z,100172.06
2023-04-10T06:35:27.467Z,100169.44
2023-04-10T06:36:29.017Z,100172.22
2023-04-10T06:37:39.535Z,100167.19
2023-04-10T06:38:41.241Z,100167.00
2023-04-10T06:39:42.778Z,100161.25
2023-04-10T06:40:44.355Z,100168.91
2023-04-10T06:41:45.897Z,100168.91
2023-04-10T06:43:09.574Z,100165.00
2023-04-10T06:44:15.113Z,100163.25
2023-04-10T06:45:16.653Z,100165.88
2023-04-10T06:46:18.196Z,100167.47
2023-04-10T06:47:19.913Z,100171.91
2023-04-10T06:48:21.506Z,100168.22
2023-04-10T06:49:23.085Z,100166.16
2023-04-10T06:50:24.648Z,100171.31
2023-04-10T06:51:26.195Z,100165.06
2023-04-10T06:52:27.733Z,100173.41
2023-04-10T06:53:29.684Z,100173.03
2023-04-10T06:54:31.217Z,100167.63
2023-04-10T06:55:32.773Z,100171.16
2023-04-10T06:56:34.336Z,100172.84
2023-04-10T06:57:35.911Z,100172.69
2023-04-10T06:58:37.446Z,100162.31
2023-04-10T06:59:38.983Z,100170.44
2023-04-10T07:00:40.961Z,100165.09
2023-04-10T07:01:42.511Z,100165.09
2023-04-10T07:02:44.128Z,100171.75
2023-04-10T07:03:45.870Z,100173.34
2023-04-10T07:04:47.506Z,100167.75
2023-04-10T07:05:49.069Z,100180.66
2023-04-10T07:06:50.628Z,100175.34
2023-04-10T07:07:52.166Z,100174.59
2023-04-10T07:08:53.896Z,100170.94
2023-04-10T07:09:55.557Z,100172.13
2023-04-10T07:10:58.627Z,100171.97
2023-04-10T07:12:00.474Z,100180.38
2023-04-10T07:13:02.149Z,100176.09
2023-04-10T07:14:03.779Z,100173.09
2023-04-10T07:15:06.085Z,100170.47
2023-04-10T07:16:08.319Z,100172.72
2023-04-10T07:17:09.886Z,100172.19
2023-04-10T07:18:11.390Z,100162.72
2023-04-10T07:19:12.916Z,100173.28
2023-04-10T07:20:14.554Z,100173.19
2023-04-10T07:21:16.111Z,100172.81
2023-04-10T07:22:17.712Z,100172.94
2023-04-10T07:23:19.244Z,100172.53
2023-04-10T07:24:20.786Z,100167.97
2023-04-10T07:25:22.371Z,100169.47
2023-04-10T07:26:23.957Z,100163.00
2023-04-10T07:27:25.575Z,100177.50
2023-04-10T07:28:27.117Z,100173.22
2023-04-10T07:29:28.639Z,100180.06
2023-04-10T07:30:30.215Z,100167.78
2023-04-10T07:31:31.874Z,100174.41
2023-04-10T07:32:33.602Z,100172.47
2023-04-10T07:33:35.355Z,100176.59
2023-04-10T07:34:36.897Z,100174.41
2023-04-10T07:35:38.465Z,100173.59
2023-04-10T07:36:40.090Z,100176.88
2023-04-10T07:37:41.647Z,100169.47
2023-04-10T07:38:43.179Z,100167.78
2023-04-10T07:39:45.068Z,100171.16
2023-04-10T07:40:46.670Z,100166.47
2023-04-10T07:41:48.181Z,100168.72
2023-04-10T07:42:51.501Z,100163.13
2023-04-10T07:43:54.885Z,100165.66
2023-04-10T07:44:57.149Z,100167.03
2023-04-10T07:45:58.662Z,100167.97
2023-04-10T07:47:00.296Z,100164.41
2023-04-10T07:48:01.940Z,100165.91
2023-04-10T07:49:03.501Z,100166.66
2023-04-10T07:50:05.827Z,100165.81
2023-04-10T07:51:07.825Z,100166.00
2023-04-10T07:52:09.340Z,100166.84
2023-04-10T07:53:10.862Z,100167.88
2023-04-10T07:54:12.375Z,100171.16
2023-04-10T07:55:13.912Z,100169.19
2023-04-10T07:56:19.491Z,100165.53
2023-04-10T07:57:21.040Z,100159.44
2023-04-10T07:58:22.572Z,100160.38
2023-04-10T07:59:24.103Z,100168.16
2023-04-10T08:00:25.614Z,100172.44
2023-04-10T08:01:28.057Z,100173.97
2023-04-10T08:02:29.683Z,100168.72
2023-04-10T08:03:41.144Z,100170.28
2023-04-10T08:04:42.858Z,100173.09
2023-04-10T08:05:44.603Z,100167.84
2023-04-10T08:06:46.139Z,100171.22
2023-04-10T08:07:47.679Z,100176.47
2023-04-10T08:08:49.219Z,100172.75
2023-04-10T08:09:50.746Z,100167.66
2023-04-10T08:10:52.299Z,100173.56
2023-04-10T08:11:53.792Z,100172.34
2023-04-10T08:12:55.703Z,100174.63
2023-04-10T08:13:59.204Z,100175.16
2023-04-10T08:15:00.703Z,100173.28
2023-04-10T08:16:02.232Z,100175.91
2023-04-10T08:17:03.907Z,100176.56
2023-04-10T08:18:05.576Z,100175.81
2023-04-10T08:19:07.182Z,100179.84
2023-04-10T08:20:09.735Z,100177.13
2023-04-10T08:21:11.236Z,100176.06
2023-04-10T08:22:12.736Z,100172.41
2023-04-10T08:23:20.302Z,100174.84
2023-04-10T08:24:22.512Z,100173.44
2023-04-10T08:25:24.130Z,100176.06
2023-04-10T08:26:27.060Z,100171.56
2023-04-10T08:27:28.597Z,100176.44
2023-04-10T08:28:30.128Z,100173.50
2023-04-10T08:29:31.665Z,100172.44
2023-04-10T08:30:33.279Z,100173.41
2023-04-10T08:31:34.838Z,100170.97
2023-04-10T08:32:36.685Z,100169.75
2023-04-10T08:33:38.288Z,100163.25
2023-04-10T08:34:39.869Z,100165.16
2023-04-10T08:35:41.442Z,100160.41
2023-04-10T08:36:42.996Z,100159.22
2023-04-10T08:37:49.716Z,100160.59
2023-04-10T08:38:51.613Z,100162.59
2023-04-10T08:39:53.244Z,100157.06
2023-04-10T08:40:55.642Z,100158.88
2023-04-10T08:41:57.208Z,100157.63
2023-04-10T08:42:58.759Z,100156.38
2023-04-10T08:44:00.310Z,100158.69
2023-04-10T08:45:02.254Z,100164.50
2023-04-10T08:46:04.019Z,100163.53
2023-04-10T08:47:06.833Z,100159.13
2023-04-10T08:48:10.861Z,100159.25
2023-04-10T08:49:29.305Z,100166.38
2023-04-10T08:50:33.687Z,100166.47
2023-04-10T08:51:55.811Z,100168.06
2023-04-10T08:52:59.998Z,100164.56
2023-04-10T08:54:11.165Z,100159.63
2023-04-10T08:55:13.459Z,100159.75
2023-04-10T08:56:17.451Z,100158.00
2023-04-10T08:57:20.410Z,100159.41
2023-04-10T08:58:23.830Z,100151.31
2023-04-10T08:59:25.587Z,100156.19
2023-04-10T09:00:28.614Z,100164.69
2023-04-10T09:01:30.948Z,100153.13
2023-04-10T09:02:32.668Z,100145.06
2023-04-10T09:03:34.537Z,100150.00
2023-04-10T09:04:36.660Z,100157.03
2023-04-10T09:05:38.386Z,100149.47
2023-04-10T09:06:40.160Z,100153.25
2023-04-10T09:07:41.691Z,100150.63
2023-04-10T09:08:43.210Z,100150.41
2023-04-10T09:09:45.075Z,100152.75
2023-04-10T09:10:46.630Z,100156.19
2023-04-10T09:11:54.101Z,100162.38
2023-04-10T09:12:55.709Z,100158.09
2023-04-10T09:13:57.366Z,100153.25
2023-04-10T09:14:58.975Z,100154.94
2023-04-10T09:16:00.822Z,100148.63
2023-04-10T09:17:22.109Z,100154.50
2023-04-10T09:18:41.124Z,100154.63
2023-04-10T09:19:44.086Z,100146.75
2023-04-10T09:20:45.651Z,100144.75
2023-04-10T09:21:50.393Z,100148.66
2023-04-10T09:22:52.255Z,100146.47
2023-04-10T09:24:00.897Z,100147.84
2023-04-10T09:25:04.023Z,100155.94
2023-04-10T09:26:22.524Z,100150.38
2023-04-10T09:27:35.728Z,100154.34
2023-04-10T09:28:56.178Z,100148.34
2023-04-10T09:29:58.453Z,100153.91
2023-04-10T09:31:00.123Z,100158.00
2023-04-10T09:32:01.715Z,100155.38
2023-04-10T09:33:04.230Z,100147.31
2023-04-10T09:34:18.356Z,100146.25
2023-04-10T09:35:20.042Z,100148.88
2023-04-10T09:36:21.621Z,100150.38
2023-04-10T09:37:30.791Z,100143.00
2023-04-10T09:38:32.419Z,100153.13
2023-04-10T09:39:36.068Z,100142.28
2023-04-10T09:40:37.728Z,100142.50
2023-04-10T09:41:53.606Z,100142.63
2023-04-10T09:42:56.685Z,100147.44
2023-04-10T09:44:09.140Z,100146.69
2023-04-10T09:45:10.634Z,100149.44
2023-04-10T09:46:12.221Z,100146.59
2023-04-10T09:47:13.732Z,100148.19
2023-04-10T09:48:15.289Z,100137.66
2023-04-10T09:49:16.852Z,100141.97
2023-04-10T09:50:18.449Z,100141.66
2023-04-10T09:51:33.144Z,100138.91
2023-04-10T09:52:35.108Z,100142.19
2023-04-10T09:53:49.089Z,100141.97
2023-04-10T09:54:50.632Z,100137.44
2023-04-10T09:55:52.169Z,100136.63
2023-04-10T09:56:54.463Z,100140.72
2023-04-10T09:57:57.658Z,100129.25
2023-04-10T09:59:00.787Z,100133.47
2023-04-10T10:00:05.085Z,100140.41
2023-04-10T10:01:12.552Z,100135.25
2023-04-10T10:02:16.582Z,100133.16
2023-04-10T10:03:20.041Z,100132.84
2023-04-10T10:04:21.951Z,100127.25
2023-04-10T10:05:24.159Z,100131.56
2023-04-10T10:06:26.179Z,100138.81
2023-04-10T10:07:29.592Z,100134.59
2023-04-10T10:08:33.462Z,100121.69
2023-04-10T10:09:36.780Z,100130.31
2023-04-10T10:11:00.301Z,100139.75
2023-04-10T10:12:03.476Z,100132.31
2023-04-10T10:13:06.514Z,100137.97
2023-04-10T10:14:15.064Z,100127.47
2023-04-10T10:15:44.535Z,100137.66
2023-04-10T10:16:49.889Z,100130.84
2023-04-10T10:17:59.971Z,100133.56
2023-04-10T10:19:09.484Z,100132.09
2023-04-10T10:20:13.235Z,100128.09
2023-04-10T10:21:16.201Z,100121.19
2023-04-10T10:22:19.226Z,100127.88
2023-04-10T10:23:22.192Z,100128.63
2023-04-10T10:24:24.852Z,100129.66
2023-04-10T10:25:26.632Z,100125.03
2023-04-10T10:26:30.286Z,100121.69
2023-04-10T10:27:34.324Z,100115.50
2023-04-10T10:28:36.193Z,100115.50
2023-04-10T10:29:39.205Z,100109.06
2023-04-10T10:30:41.004Z,100110.56
2023-04-10T10:31:43.293Z,100108.88
2023-04-10T10:32:46.199Z,100103.81
2023-04-10T10:33:48.154Z,100102.38
2023-04-10T10:34:52.542Z,100095.00
2023-04-10T10:35:54.599Z,100087.00
2023-04-10T10:36:58.115Z,100089.28
2023-04-10T10:38:01.207Z,100095.91
2023-04-10T10:39:05.424Z,100087.16
2023-04-10T10:40:17.655Z,100087.38
2023-04-10T10:41:28.629Z,100084.59
2023-04-10T10:43:00.624Z,100076.88
2023-04-10T10:44:13.284Z,100084.66
2023-04-10T10:45:23.708Z,100075.47
2023-04-10T10:46:41.680Z,100069.16
2023-04-10T10:47:50.985Z,100066.91
2023-04-10T10:48:57.152Z,100067.28
2023-04-10T10:50:00.552Z,100066.28
2023-04-10T10:51:02.278Z,100065.94
2023-04-10T10:52:03.965Z,100075.97
2023-04-10T10:53:05.500Z,100070.13
2023-04-10T10:54:27.547Z,100069.91
2023-04-10T10:55:29.680Z,100065.25
2023-04-10T10:56:33.962Z,100070.06
2023-04-10T10:57:48.578Z,100067.19
2023-04-10T10:58:53.039Z,100069.81
2023-04-10T10:59:55.042Z,100073.75
2023-04-10T11:00:59.174Z,100080.81
2023-04-10T11:02:14.378Z,100077.09
2023-04-10T11:03:16.075Z,100071.41
2023-04-10T11:04:46.801Z,100072.22
2023-04-10T11:05:49.367Z,100067.75
2023-04-10T11:06:51.965Z,100062.59
2023-04-10T11:07:59.410Z,100065.03
2023-04-10T11:09:00.991Z,100064.19
2023-04-10T11:10:02.624Z,100063.91
2023-04-10T11:11:11.580Z,100059.16
2023-04-10T11:12:13.340Z,100056.75
2023-04-10T11:13:16.790Z,100055.66
2023-04-10T11:14:19.152Z,100052.94
2023-04-10T11:15:23.914Z,100055.94
2023-04-10T11:16:31.636Z,100058.47
2023-04-10T11:17:50.018Z,100051.97
2023-04-10T11:19:02.676Z,100052.53
2023-04-10T11:20:11.955Z,100045.72
2023-04-10T11:21:14.387Z,100051.94
2023-04-10T11:22:15.927Z,100048.00
2023-04-10T11:23:17.485Z,100045.88
2023-04-10T11:24:19.025Z,100050.63
2023-04-10T11:25:20.659Z,100039.50
2023-04-10T11:26:33.792Z,100048.56
2023-04-10T11:27:38.355Z,100049.16
2023-04-10T11:28:39.953Z,100039.59
2023-04-10T11:29:41.539Z,100045.81
2023-04-10T11:30:43.153Z,100050.34
2023-04-10T11:31:54.931Z,100048.06
2023-04-10T11:32:57.595Z,100049.50
2023-04-10T11:34:01.674Z,100049.16
2023-04-10T11:35:05.114Z,100044.94
2023-04-10T11:36:07.370Z,100049.03
2023-04-10T11:37:08.891Z,100046.53
2023-04-10T11:38:12.436Z,100049.97
2023-04-10T11:39:15.659Z,100040.91
2023-04-10T11:40:17.292Z,100040.59
2023-04-10T11:41:18.847Z,100038.66
2023-04-10T11:42:20.746Z,100030.53
2023-04-10T11:43:22.414Z,100031.47
2023-04-10T11:44:34.326Z,100032.94
2023-04-10T11:45:35.981Z,100032.22
2023-04-10T11:46:39.397Z,100024.53
2023-04-10T11:47:41.029Z,100031.72
2023-04-10T11:48:42.722Z,100026.56
2023-04-10T11:49:53.684Z,100028.97
2023-04-10T11:50:55.389Z,100029.91
2023-04-10T11:51:56.959Z,100030.53
2023-04-10T11:52:58.579Z,100034.59
2023-04-10T11:54:20.382Z,100028.75
2023-04-10T11:55:39.378Z,100030.78
2023-04-10T11:56:43.767Z,100029.31
2023-04-10T11:57:45.892Z,100027.53
2023-04-10T11:58:50.979Z,100022.34
2023-04-10T11:59:52.548Z,100028.72
2023-04-10T12:00:58.393Z,100024.63
2023-04-10T12:02:10.282Z,100026.53
2023-04-10T12:03:12.102Z,100025.81
2023-04-10T12:04:18.292Z,100027.59
2023-04-10T12:05:20.132Z,100029.16
2023-04-10T12:06:22.217Z,100021.25
2023-04-10T12:07:24.452Z,100014.94
2023-04-10T12:08:33.524Z,100014.69
2023-04-10T12:09:35.257Z,100018.34
2023-04-10T12:10:47.109Z,100014.78
2023-04-10T12:11:56.588Z,100013.72
2023-04-10T12:12:58.163Z,100011.22
2023-04-10T12:13:59.824Z,100013.50
2023-04-10T12:15:01.485Z,100016.00
2023-04-10T12:16:10.423Z,100013.50
2023-04-10T12:17:12.575Z,100017.28
2023-04-10T12:18:14.177Z,100012.97
2023-04-10T12:19:16.501Z,100010.59
2023-04-10T12:20:18.168Z,100014.78
2023-04-10T12:21:20.092Z,100011.06
2023-04-10T12:22:21.813Z,100015.19
2023-04-10T12:23:24.341Z,100010.88
2023-04-10T12:24:46.350Z,100008.81
2023-04-10T12:25:47.874Z,100008.81
2023-04-10T12:26:49.552Z,100009.69
2023-04-10T12:27:51.129Z,100010.41
2023-04-10T12:28:55.034Z,99998.66
2023-04-10T12:29:58.468Z,100006.47
2023-04-10T12:31:00.186Z,99998.66
2023-04-10T12:32:10.407Z,99999.75
2023-04-10T12:33:12.015Z,100004.69
2023-04-10T12:34:18.616Z,99998.31
2023-04-10T12:35:20.303Z,100001.69
2023-04-10T12:36:23.052Z,99998.94
2023-04-10T12:37:25.786Z,99999.19
2023-04-10T12:38:36.627Z,99999.19